FYLZ/LUD METAR and TAF weather

Enter ICAO airport designator
Station Type Date Time Source
FYLZ METAR 2019/09/21 21:00 UTC NOAA

FYLZ 212100Z AUTO 17020KT //// // ////// 15/09 Q1017


Station Type Date Time Source
FYLZ Decoded METAR 2019/09/21 21:00 UTC NOAA

Luderitz / Diaz Point, Namibia (FYLZ) 26-41S 015-15E
Sep 21, 2019 - 05:00 PM EDT / 2019.09.21 2100 UTC
Wind: from the S (170 degrees) at 23 MPH (20 KT):0
Temperature: 59 F (15 C)
Dew Point: 48 F (9 C)
Relative Humidity: 67%
Pressure (altimeter): 30.03 in. Hg (1017 hPa)
ob: FYLZ 212100Z AUTO 17020KT //// // ////// 15/09 Q1017
cycle: 21

Station Type Date Time Source
FYLZ TAF 2014/11/15 15:19 UTC NOAA

TAF FYLZ 151400Z 1515/1524 18015G28KT CAVOK
BECMG 1518/1520 16020KT

Example: see airport list